createdAt,value
2024-03-05T00:00:41.096Z,2.62
2024-03-05T00:03:09.919Z,2.67
2024-03-05T00:05:38.576Z,2.65
2024-03-05T00:08:08.025Z,2.64
2024-03-05T00:10:36.095Z,2.63
2024-03-05T00:13:05.460Z,2.61
2024-03-05T00:15:35.413Z,2.59
2024-03-05T00:18:05.663Z,2.57
2024-03-05T00:20:34.110Z,2.54
2024-03-05T00:23:02.700Z,2.51
2024-03-05T00:25:30.859Z,2.55
2024-03-05T00:27:59.568Z,2.54
2024-03-05T00:30:28.711Z,2.54
2024-03-05T00:32:58.708Z,2.54
2024-03-05T00:35:29.125Z,2.56
2024-03-05T00:37:57.315Z,2.54
2024-03-05T00:40:26.180Z,2.54
2024-03-05T00:42:54.736Z,2.49
2024-03-05T00:45:23.286Z,2.48
2024-03-05T00:47:52.718Z,2.46
2024-03-05T00:50:23.737Z,2.49
2024-03-05T00:52:52.131Z,2.53
2024-03-05T00:55:20.898Z,2.56
2024-03-05T00:57:49.420Z,2.58
2024-03-05T01:00:21.030Z,2.56
2024-03-05T01:02:49.666Z,2.58
2024-03-05T01:05:20.029Z,2.54
2024-03-05T01:07:49.633Z,2.55
2024-03-05T01:10:18.224Z,2.54
2024-03-05T01:12:47.062Z,2.54
2024-03-05T01:15:15.699Z,2.54
2024-03-05T01:17:44.229Z,2.52
2024-03-05T01:20:17.157Z,2.49
2024-03-05T01:22:45.498Z,2.50
2024-03-05T01:25:15.677Z,2.49
2024-03-05T01:27:43.980Z,2.50
2024-03-05T01:30:49.463Z,2.46
2024-03-05T01:33:56.488Z,2.44
2024-03-05T01:37:05.410Z,2.38
2024-03-05T01:40:15.655Z,2.39
2024-03-05T01:43:24.371Z,2.36
2024-03-05T01:46:33.251Z,2.36
2024-03-05T01:49:42.090Z,2.38
2024-03-05T01:52:50.957Z,2.33
2024-03-05T01:56:01.093Z,2.27
2024-03-05T01:59:09.925Z,2.19
2024-03-05T02:02:19.038Z,2.17
2024-03-05T02:05:27.927Z,2.13
2024-03-05T02:08:36.753Z,2.14
2024-03-05T02:11:52.919Z,2.19
2024-03-05T02:15:12.400Z,2.25
2024-03-05T02:18:21.117Z,2.25
2024-03-05T02:21:32.585Z,2.25
2024-03-05T02:24:41.256Z,2.19
2024-03-05T02:27:50.687Z,2.20
2024-03-05T02:30:59.468Z,2.20
2024-03-05T02:34:08.559Z,2.20
2024-03-05T02:37:18.997Z,2.18
2024-03-05T02:40:27.754Z,2.23
2024-03-05T02:43:36.402Z,2.19
2024-03-05T02:46:45.057Z,2.22
2024-03-05T02:49:53.744Z,2.23
2024-03-05T02:53:05.679Z,2.24
2024-03-05T02:56:14.875Z,2.25
2024-03-05T02:59:23.622Z,2.24
2024-03-05T03:02:32.255Z,2.20
2024-03-05T03:05:41.771Z,2.18
2024-03-05T03:08:51.804Z,2.22
2024-03-05T03:12:00.857Z,2.24
2024-03-05T03:15:10.347Z,2.28
2024-03-05T03:18:19.201Z,2.25
2024-03-05T03:21:28.532Z,2.28
2024-03-05T03:24:38.480Z,2.33
2024-03-05T03:27:47.821Z,2.33
2024-03-05T03:30:56.449Z,2.34
2024-03-05T03:34:05.163Z,2.37
2024-03-05T03:37:14.349Z,2.37
2024-03-05T03:40:24.619Z,2.37
2024-03-05T03:43:33.294Z,2.39
2024-03-05T03:46:42.475Z,2.40
2024-03-05T03:49:51.314Z,2.39
2024-03-05T03:53:00.477Z,2.37
2024-03-05T03:56:10.714Z,2.38
2024-03-05T03:59:19.648Z,2.34
2024-03-05T04:02:28.736Z,2.37
2024-03-05T04:05:37.554Z,2.39
2024-03-05T04:08:46.203Z,2.42
2024-03-05T04:11:56.339Z,2.42
2024-03-05T04:15:06.540Z,2.41
2024-03-05T04:18:15.333Z,2.38
2024-03-05T04:21:24.543Z,2.42
2024-03-05T04:24:33.817Z,2.45
2024-03-05T04:27:47.977Z,2.39
2024-03-05T04:30:58.412Z,2.38
2024-03-05T04:34:08.714Z,2.33
2024-03-05T04:37:18.220Z,2.34
2024-03-05T04:40:27.695Z,2.36
2024-03-05T04:43:39.088Z,2.44
2024-03-05T04:46:47.754Z,2.45
2024-03-05T04:49:57.015Z,2.48
2024-03-05T04:53:06.071Z,2.52
2024-03-05T04:56:14.824Z,2.56
2024-03-05T04:59:25.476Z,2.57
2024-03-05T05:02:34.154Z,2.55
2024-03-05T05:05:42.804Z,2.56
2024-03-05T05:08:53.232Z,2.58
2024-03-05T05:12:02.075Z,2.59
2024-03-05T05:15:13.322Z,2.55
2024-03-05T05:18:22.181Z,2.54
2024-03-05T05:21:30.815Z,2.53
2024-03-05T05:24:39.487Z,2.59
2024-03-05T05:27:49.597Z,2.60
2024-03-05T05:31:00.030Z,2.63
2024-03-05T05:34:09.356Z,2.66
2024-03-05T05:37:18.041Z,2.71
2024-03-05T05:40:26.801Z,2.77
2024-03-05T05:43:35.687Z,2.84
2024-03-05T05:46:47.871Z,2.88
2024-03-05T05:49:56.675Z,2.91
2024-03-05T05:53:09.837Z,2.94
2024-03-05T05:56:18.819Z,2.91
2024-03-05T05:59:27.434Z,2.90
2024-03-05T06:02:38.164Z,2.88
2024-03-05T06:05:48.278Z,2.83
2024-03-05T06:08:56.883Z,2.87
2024-03-05T06:12:05.887Z,2.91
2024-03-05T06:15:14.684Z,2.98
2024-03-05T06:18:25.464Z,3.02
2024-03-05T06:21:34.098Z,3.00
2024-03-05T06:24:42.774Z,3.04
2024-03-05T06:27:51.539Z,3.09
2024-03-05T06:31:00.899Z,3.13
2024-03-05T06:34:12.349Z,3.20
2024-03-05T06:37:21.099Z,3.25
2024-03-05T06:40:29.887Z,3.31
2024-03-05T06:43:39.089Z,3.35
2024-03-05T06:46:50.150Z,3.31
2024-03-05T06:50:02.523Z,3.30
2024-03-05T06:53:30.030Z,3.28
2024-03-05T06:56:41.635Z,3.30
2024-03-05T06:59:50.992Z,3.35
2024-03-05T07:02:59.691Z,3.39
2024-03-05T07:06:11.193Z,3.42
2024-03-05T07:09:20.853Z,3.45
2024-03-05T07:12:31.466Z,3.50
2024-03-05T07:15:40.717Z,3.52
2024-03-05T07:18:50.873Z,3.62
2024-03-05T07:22:00.849Z,3.62
2024-03-05T07:25:11.875Z,3.56
2024-03-05T07:28:20.507Z,3.64
2024-03-05T07:31:29.914Z,3.71
2024-03-05T07:34:38.763Z,3.83
2024-03-05T07:37:48.989Z,3.89
2024-03-05T07:40:57.822Z,3.90
2024-03-05T07:44:07.132Z,3.94
2024-03-05T07:47:16.998Z,4.01
2024-03-05T07:50:04.512Z,4.07
2024-03-05T07:52:33.088Z,4.06
2024-03-05T07:55:05.043Z,4.10
2024-03-05T07:57:35.817Z,4.14
2024-03-05T08:00:09.824Z,4.00
2024-03-05T08:02:39.835Z,4.05
2024-03-05T08:05:08.970Z,4.17
2024-03-05T08:07:38.013Z,3.92
2024-03-05T08:10:10.039Z,3.84
2024-03-05T08:12:39.879Z,3.84
2024-03-05T08:15:13.460Z,3.81
2024-03-05T08:17:43.086Z,3.87
2024-03-05T08:20:14.151Z,3.82
2024-03-05T08:22:42.342Z,3.90
2024-03-05T08:25:14.014Z,3.90
2024-03-05T08:27:43.145Z,3.88
2024-03-05T08:30:16.335Z,3.94
2024-03-05T08:32:45.254Z,3.93
2024-03-05T08:35:13.971Z,4.04
2024-03-05T08:37:42.717Z,4.16
2024-03-05T08:40:14.962Z,4.27
2024-03-05T08:42:44.844Z,4.35
2024-03-05T08:45:14.700Z,4.47
2024-03-05T08:47:46.154Z,4.53
2024-03-05T08:50:14.914Z,4.60
2024-03-05T08:52:43.715Z,4.72
2024-03-05T08:55:15.401Z,4.76
2024-03-05T08:57:43.738Z,4.85
2024-03-05T09:00:31.584Z,4.81
2024-03-05T09:03:59.825Z,4.90
2024-03-05T09:06:29.431Z,5.04
2024-03-05T09:08:58.332Z,5.07
2024-03-05T09:11:29.094Z,5.06
2024-03-05T09:13:57.653Z,4.99
2024-03-05T09:16:26.727Z,5.15
2024-03-05T09:18:57.036Z,5.30
2024-03-05T09:21:25.650Z,5.32
2024-03-05T09:23:54.165Z,5.45
2024-03-05T09:26:22.884Z,5.43
2024-03-05T09:28:52.933Z,5.42
2024-03-05T09:31:21.497Z,5.51
2024-03-05T09:33:50.061Z,5.56
2024-03-05T09:36:18.762Z,5.69
2024-03-05T09:38:47.429Z,5.65
2024-03-05T09:41:15.976Z,5.68
2024-03-05T09:43:46.448Z,5.69
2024-03-05T09:46:16.576Z,5.70
2024-03-05T09:48:46.209Z,5.74
2024-03-05T09:51:15.437Z,5.78
2024-03-05T09:53:43.980Z,5.80
2024-03-05T09:56:14.793Z,5.75
2024-03-05T09:58:42.800Z,5.68
2024-03-05T10:01:11.875Z,5.61
2024-03-05T10:03:43.227Z,5.51
2024-03-05T10:06:13.263Z,5.50
2024-03-05T10:08:41.914Z,5.48
2024-03-05T10:11:10.815Z,5.36
2024-03-05T10:13:39.447Z,5.41
2024-03-05T10:16:17.368Z,5.50
2024-03-05T10:18:48.755Z,5.54
2024-03-05T10:21:20.072Z,5.49
2024-03-05T10:23:50.380Z,5.48
2024-03-05T10:26:25.583Z,5.40
2024-03-05T10:28:54.462Z,5.34
2024-03-05T10:31:27.484Z,5.33
2024-03-05T10:33:59.341Z,5.27
2024-03-05T10:36:29.568Z,5.28
2024-03-05T10:38:58.236Z,5.23
2024-03-05T10:41:39.172Z,5.26
2024-03-05T10:44:15.676Z,5.26
2024-03-05T10:46:44.393Z,5.29
2024-03-05T10:49:14.752Z,5.30
2024-03-05T10:51:44.522Z,5.24
2024-03-05T10:54:13.417Z,5.23
2024-03-05T10:56:44.791Z,5.29
2024-03-05T10:59:26.284Z,5.36
2024-03-05T11:01:55.961Z,5.37
2024-03-05T11:04:27.141Z,5.30
2024-03-05T11:06:57.256Z,5.36
2024-03-05T11:09:26.910Z,5.36
2024-03-05T11:12:02.930Z,5.33
2024-03-05T11:14:32.726Z,5.35
2024-03-05T11:17:11.188Z,5.35
2024-03-05T11:19:44.452Z,5.39
2024-03-05T11:22:24.664Z,5.46
2024-03-05T11:24:57.817Z,5.48
2024-03-05T11:27:26.752Z,5.44
2024-03-05T11:30:10.284Z,5.49
2024-03-05T11:32:39.396Z,5.51
2024-03-05T11:35:12.756Z,5.57
2024-03-05T11:37:49.841Z,5.60
2024-03-05T11:40:22.683Z,5.63
2024-03-05T11:42:55.203Z,5.63
2024-03-05T11:45:52.810Z,5.65
2024-03-05T11:48:23.330Z,5.68
2024-03-05T11:50:54.959Z,5.75
2024-03-05T11:53:24.689Z,5.84
2024-03-05T11:55:53.819Z,5.94
2024-03-05T11:58:25.230Z,6.03
2024-03-05T12:01:02.144Z,6.07
2024-03-05T12:03:30.798Z,6.11
2024-03-05T12:06:01.264Z,6.13
2024-03-05T12:08:32.278Z,6.16
2024-03-05T12:11:03.416Z,6.16
2024-03-05T12:13:32.626Z,6.11
2024-03-05T12:16:11.215Z,5.98
2024-03-05T12:18:40.488Z,5.87
2024-03-05T12:21:11.797Z,5.84
2024-03-05T12:23:43.023Z,5.86
2024-03-05T12:26:13.293Z,5.81
2024-03-05T12:28:41.625Z,5.77
2024-03-05T12:31:10.838Z,5.74
2024-03-05T12:33:39.461Z,5.76
2024-03-05T12:36:08.758Z,5.87
2024-03-05T12:38:38.666Z,5.91
2024-03-05T12:41:07.489Z,5.97
2024-03-05T12:43:36.752Z,6.02
2024-03-05T12:46:05.711Z,6.01
2024-03-05T12:48:37.258Z,5.96
2024-03-05T12:51:06.252Z,5.94
2024-03-05T12:53:35.211Z,5.87
2024-03-05T12:56:06.723Z,5.75
2024-03-05T12:58:42.517Z,5.77
2024-03-05T13:01:12.061Z,5.76
2024-03-05T13:03:40.700Z,5.74
2024-03-05T13:06:09.671Z,5.80
2024-03-05T13:08:39.378Z,5.90
2024-03-05T13:11:09.371Z,5.95
2024-03-05T13:13:37.562Z,6.00
2024-03-05T13:16:07.134Z,5.98
2024-03-05T13:18:38.158Z,6.04
2024-03-05T13:21:07.677Z,6.12
2024-03-05T13:23:36.466Z,6.22
2024-03-05T13:26:05.382Z,6.23
2024-03-05T13:28:37.840Z,6.23
2024-03-05T13:31:08.236Z,6.19
2024-03-05T13:33:38.503Z,6.15
2024-03-05T13:36:08.346Z,6.12
2024-03-05T13:38:36.876Z,6.07
2024-03-05T13:41:07.806Z,5.97
2024-03-05T13:43:38.249Z,5.71
2024-03-05T13:46:06.998Z,5.64
2024-03-05T13:48:35.615Z,5.63
2024-03-05T13:51:04.725Z,5.66
2024-03-05T13:53:34.080Z,5.66
2024-03-05T13:56:02.712Z,5.53
2024-03-05T13:58:30.778Z,5.53
2024-03-05T14:01:01.561Z,5.49
2024-03-05T14:03:30.108Z,5.50
2024-03-05T14:05:59.318Z,5.54
2024-03-05T14:08:29.915Z,5.58
2024-03-05T14:10:58.653Z,5.61
2024-03-05T14:13:27.216Z,5.65
2024-03-05T14:15:55.837Z,5.64
2024-03-05T14:18:25.834Z,5.58
2024-03-05T14:20:54.378Z,5.56
2024-03-05T14:23:24.055Z,5.59
2024-03-05T14:25:52.295Z,5.55
2024-03-05T14:28:21.001Z,5.57
2024-03-05T14:30:49.598Z,5.57
2024-03-05T14:33:19.383Z,5.57
2024-03-05T14:35:51.157Z,5.59
2024-03-05T14:38:21.352Z,5.57
2024-03-05T14:40:51.242Z,5.60
2024-03-05T14:43:19.826Z,5.61
2024-03-05T14:45:48.450Z,5.61
2024-03-05T14:48:17.091Z,5.61
2024-03-05T14:50:45.791Z,5.55
2024-03-05T14:53:15.796Z,5.51
2024-03-05T14:55:44.178Z,5.48
2024-03-05T14:58:13.560Z,5.50
2024-03-05T15:00:43.441Z,5.53
2024-03-05T15:03:11.988Z,5.56
2024-03-05T15:05:42.695Z,5.56
2024-03-05T15:08:11.363Z,5.58
2024-03-05T15:10:40.838Z,5.59
2024-03-05T15:13:09.798Z,5.57
2024-03-05T15:15:38.613Z,5.57
2024-03-05T15:18:07.791Z,5.57
2024-03-05T15:20:36.389Z,5.57
2024-03-05T15:23:05.236Z,5.59
2024-03-05T15:25:35.860Z,5.59
2024-03-05T15:28:08.359Z,5.61
2024-03-05T15:30:37.499Z,5.62
2024-03-05T15:33:10.729Z,5.53
2024-03-05T15:35:40.393Z,5.23
2024-03-05T15:38:09.362Z,5.05
2024-03-05T15:40:38.979Z,5.01
2024-03-05T15:43:09.788Z,5.06
2024-03-05T15:45:40.064Z,5.10
2024-03-05T15:48:12.479Z,5.17
2024-03-05T15:50:42.652Z,5.22
2024-03-05T15:53:11.706Z,5.23
2024-03-05T15:55:43.878Z,5.27
2024-03-05T15:58:41.167Z,5.32
2024-03-05T16:01:09.403Z,5.38
2024-03-05T16:03:47.574Z,5.40
2024-03-05T16:06:22.181Z,5.43
2024-03-05T16:08:50.768Z,5.43
2024-03-05T16:11:19.783Z,5.43
2024-03-05T16:13:49.288Z,5.30
2024-03-05T16:16:21.155Z,5.12
2024-03-05T16:18:50.142Z,5.11
2024-03-05T16:21:18.772Z,5.05
2024-03-05T16:23:47.323Z,5.04
2024-03-05T16:26:15.936Z,5.08
2024-03-05T16:28:44.220Z,5.12
2024-03-05T16:31:16.996Z,5.14
2024-03-05T16:33:46.271Z,5.20
2024-03-05T16:36:15.335Z,5.26
2024-03-05T16:38:43.904Z,5.31
2024-03-05T16:41:12.680Z,5.30
2024-03-05T16:43:40.878Z,5.28
2024-03-05T16:46:09.715Z,5.27
2024-03-05T16:48:39.662Z,5.25
2024-03-05T16:51:08.267Z,5.23
2024-03-05T16:53:37.482Z,5.22
2024-03-05T16:56:07.298Z,5.24
2024-03-05T16:58:39.014Z,5.25
2024-03-05T17:01:13.701Z,5.24
2024-03-05T17:03:46.594Z,5.19
2024-03-05T17:06:18.525Z,5.13
2024-03-05T17:08:49.980Z,5.07
2024-03-05T17:11:21.700Z,5.06
2024-03-05T17:13:50.280Z,5.04
2024-03-05T17:16:20.218Z,5.01
2024-03-05T17:18:51.730Z,5.00
2024-03-05T17:21:20.626Z,4.93
2024-03-05T17:23:49.201Z,4.86
2024-03-05T17:26:17.939Z,4.86
2024-03-05T17:28:46.596Z,4.85
2024-03-05T17:31:15.224Z,4.87
2024-03-05T17:33:43.795Z,4.87
2024-03-05T17:36:13.726Z,4.89
2024-03-05T17:38:43.446Z,4.89
2024-03-05T17:41:12.126Z,4.93
2024-03-05T17:43:40.322Z,4.96
2024-03-05T17:46:10.794Z,4.99
2024-03-05T17:48:39.900Z,5.02
2024-03-05T17:51:11.615Z,5.03
2024-03-05T17:53:41.813Z,5.07
2024-03-05T17:56:12.602Z,5.08
2024-03-05T17:58:41.259Z,5.06
2024-03-05T18:01:12.808Z,5.04
2024-03-05T18:03:44.596Z,5.03
2024-03-05T18:06:17.340Z,5.04
2024-03-05T18:08:47.653Z,5.03
2024-03-05T18:11:16.588Z,4.96
2024-03-05T18:13:45.071Z,4.90
2024-03-05T18:16:14.081Z,4.76
2024-03-05T18:18:42.612Z,4.60
2024-03-05T18:21:14.429Z,4.41
2024-03-05T18:23:43.375Z,4.27
2024-03-05T18:26:14.752Z,4.16
2024-03-05T18:28:44.515Z,4.04
2024-03-05T18:31:17.362Z,3.97
2024-03-05T18:33:47.234Z,3.93
2024-03-05T18:36:16.949Z,3.94
2024-03-05T18:38:48.646Z,3.90
2024-03-05T18:41:18.877Z,3.87
2024-03-05T18:43:47.341Z,3.84
2024-03-05T18:46:16.863Z,3.80
2024-03-05T18:48:45.594Z,3.78
2024-03-05T18:51:15.227Z,3.81
2024-03-05T18:53:46.793Z,3.84
2024-03-05T18:56:20.034Z,3.79
2024-03-05T18:58:48.292Z,3.76
2024-03-05T19:01:16.931Z,3.74
2024-03-05T19:03:46.134Z,3.70
2024-03-05T19:06:15.245Z,3.68
2024-03-05T19:08:44.269Z,3.69
2024-03-05T19:11:36.390Z,3.74
2024-03-05T19:14:08.393Z,3.74
2024-03-05T19:16:37.840Z,3.70
2024-03-05T19:19:06.809Z,3.69
2024-03-05T19:21:35.707Z,3.71
2024-03-05T19:24:04.766Z,3.73
2024-03-05T19:26:33.671Z,3.76
2024-03-05T19:29:05.217Z,3.81
2024-03-05T19:31:34.281Z,3.82
2024-03-05T19:34:04.036Z,3.85
2024-03-05T19:36:33.187Z,3.88
2024-03-05T19:39:01.914Z,3.90
2024-03-05T19:41:31.025Z,3.95
2024-03-05T19:44:01.199Z,3.98
2024-03-05T19:46:30.979Z,3.97
2024-03-05T19:49:27.238Z,4.00
2024-03-05T19:51:56.758Z,4.02
2024-03-05T19:54:25.912Z,4.06
2024-03-05T19:56:54.568Z,4.07
2024-03-05T19:59:23.176Z,4.10
2024-03-05T20:01:52.639Z,4.11
2024-03-05T20:04:22.238Z,4.13
2024-03-05T20:06:50.927Z,4.14
2024-03-05T20:13:00.283Z,4.17
2024-03-05T20:15:28.804Z,4.19
2024-03-05T20:17:58.705Z,4.18
2024-03-05T20:20:29.103Z,4.23
2024-03-05T20:22:57.144Z,4.29
2024-03-05T20:25:26.836Z,4.30
2024-03-05T20:27:56.381Z,4.34
2024-03-05T20:30:24.937Z,4.37
2024-03-05T20:32:53.770Z,4.39
2024-03-05T20:35:25.689Z,4.38
2024-03-05T20:37:55.377Z,4.39
2024-03-05T20:40:28.612Z,4.36
2024-03-05T20:42:57.382Z,4.34
2024-03-05T20:45:26.622Z,4.36
2024-03-05T20:47:55.213Z,4.37
2024-03-05T20:50:25.294Z,4.37
2024-03-05T20:52:54.223Z,4.34
2024-03-05T20:55:26.754Z,4.39
2024-03-05T20:57:57.066Z,4.38
2024-03-05T21:00:28.899Z,4.40
2024-03-05T21:02:59.781Z,4.40
2024-03-05T21:05:32.115Z,4.42
2024-03-05T21:08:01.087Z,4.42
2024-03-05T21:10:29.360Z,4.43
2024-03-05T21:12:58.135Z,4.46
2024-03-05T21:15:26.893Z,4.38
2024-03-05T21:17:55.438Z,4.27
2024-03-05T21:20:24.327Z,4.24
2024-03-05T21:22:53.946Z,4.19
2024-03-05T21:25:23.478Z,4.16
2024-03-05T21:27:52.458Z,4.13
2024-03-05T21:30:21.301Z,4.05
2024-03-05T21:32:50.136Z,4.02
2024-03-05T21:35:18.827Z,4.04
2024-03-05T21:37:47.411Z,4.03
2024-03-05T21:40:18.268Z,4.04
2024-03-05T21:42:47.039Z,4.01
2024-03-05T21:45:16.499Z,3.93
2024-03-05T21:47:46.712Z,3.92
2024-03-05T21:50:15.627Z,3.91
2024-03-05T21:52:47.276Z,3.90
2024-03-05T21:55:17.912Z,3.93
2024-03-05T21:57:46.515Z,4.01
2024-03-05T22:00:16.019Z,4.03
2024-03-05T22:02:44.861Z,4.07
2024-03-05T22:05:13.996Z,4.09
2024-03-05T22:07:42.382Z,4.12
2024-03-05T22:10:11.619Z,4.12
2024-03-05T22:12:42.263Z,4.14
2024-03-05T22:15:12.241Z,4.13
2024-03-05T22:17:42.243Z,4.11
2024-03-05T22:20:14.854Z,4.12
2024-03-05T22:22:43.023Z,4.12
2024-03-05T22:25:11.611Z,4.09
2024-03-05T22:27:41.691Z,4.08
2024-03-05T22:30:11.175Z,4.05
2024-03-05T22:32:39.962Z,4.05
2024-03-05T22:35:11.188Z,4.07
2024-03-05T22:37:41.042Z,4.12
2024-03-05T22:40:11.615Z,4.16
2024-03-05T22:42:41.883Z,4.19
2024-03-05T22:45:11.863Z,4.23
2024-03-05T22:47:40.532Z,4.27
2024-03-05T22:50:10.911Z,4.30
2024-03-05T22:52:39.605Z,4.30
2024-03-05T22:55:09.394Z,4.31
2024-03-05T22:57:38.342Z,4.31
2024-03-05T23:00:23.549Z,4.31
2024-03-05T23:02:54.044Z,4.31
2024-03-05T23:05:23.419Z,4.36
2024-03-05T23:07:52.344Z,4.37
2024-03-05T23:10:21.084Z,4.40
2024-03-05T23:12:49.533Z,4.40
2024-03-05T23:15:20.090Z,4.42
2024-03-05T23:17:48.676Z,4.42
2024-03-05T23:20:18.786Z,4.39
2024-03-05T23:22:48.711Z,4.38
2024-03-05T23:25:17.398Z,4.35
2024-03-05T23:27:47.941Z,4.36
2024-03-05T23:30:17.560Z,4.40
2024-03-05T23:32:49.459Z,4.43
2024-03-05T23:35:18.665Z,4.45
2024-03-05T23:37:47.304Z,4.48
2024-03-05T23:40:15.959Z,4.50
2024-03-05T23:42:44.448Z,4.51
2024-03-05T23:45:13.177Z,4.49
2024-03-05T23:47:42.098Z,4.52
2024-03-05T23:50:13.721Z,4.56
2024-03-05T23:52:41.885Z,4.60
2024-03-05T23:55:10.656Z,4.59
2024-03-05T23:57:39.289Z,4.56
